Time;durP1;ratioP1;P1;durP2;ratioP2;P2;SDS_P1;SDS_P2;PMS_P1;PMS_P2;Temp;Humidity;BMP_temperature;BMP_pressure;BME280_temperature;BME280_humidity;BME280_pressure;Samples;Min_cycle;Max_cycle;Signal;HPM_P1;HPM_P2
2022/10/25 00:01:25;;;;;;;1999.90;999.90;;;11.40;99.90;;;;;;5070163;28;20478;-67
2022/10/25 00:03:52;;;;;;;1999.90;999.90;;;11.40;99.90;;;;;;5070357;28;20949;-67
2022/10/25 00:06:19;;;;;;;1999.90;999.90;;;11.50;99.90;;;;;;5070493;28;20439;-67
2022/10/25 00:08:46;;;;;;;1999.90;999.90;;;11.40;99.90;;;;;;5070697;28;20467;-68
2022/10/25 00:11:19;;;;;;;1999.90;999.90;;;11.40;99.90;;;;;;5069974;28;20451;-67
2022/10/25 00:13:48;;;;;;;1999.90;999.90;;;11.40;99.90;;;;;;5069708;28;20995;-68
2022/10/25 00:16:15;;;;;;;1999.90;999.90;;;11.50;99.90;;;;;;5069779;28;20449;-67
2022/10/25 00:18:42;;;;;;;1999.90;999.90;;;11.50;99.90;;;;;;5070464;28;20467;-67
2022/10/25 00:21:09;;;;;;;1999.90;999.90;;;11.50;99.90;;;;;;5069881;28;20451;-67
2022/10/25 00:23:36;;;;;;;1999.90;999.90;;;11.50;99.90;;;;;;5069921;28;20439;-68
2022/10/25 00:26:03;;;;;;;1999.90;999.90;;;11.50;99.90;;;;;;5069675;28;20443;-67
2022/10/25 00:28:31;;;;;;;1999.90;999.90;;;11.50;99.90;;;;;;5070012;28;20467;-67
2022/10/25 00:31:01;;;;;;;1999.90;999.90;;;11.50;99.90;;;;;;5069594;28;20522;-68
2022/10/25 00:33:30;;;;;;;1999.90;999.90;;;11.50;99.90;;;;;;5069617;28;20450;-67
2022/10/25 00:35:56;;;;;;;1999.90;999.90;;;11.50;99.90;;;;;;5069526;28;20455;-67
2022/10/25 00:38:23;;;;;;;1999.90;999.90;;;11.50;99.90;;;;;;5069862;28;20482;-67
2022/10/25 00:40:50;;;;;;;1999.90;999.90;;;11.50;99.90;;;;;;5068717;28;20447;-67
2022/10/25 00:43:33;;;;;;;1999.90;999.90;;;11.50;99.90;;;;;;5069243;28;20475;-68
2022/10/25 00:46:01;;;;;;;1999.90;999.90;;;11.40;99.90;;;;;;5069695;28;20454;-68
2022/10/25 00:48:28;;;;;;;1999.90;999.90;;;11.40;99.90;;;;;;5069616;28;21017;-67
2022/10/25 00:50:56;;;;;;;1999.90;999.90;;;11.50;99.90;;;;;;5069504;28;20815;-67
2022/10/25 00:53:28;;;;;;;1999.90;999.90;;;11.40;99.90;;;;;;5069186;28;20443;-68
2022/10/25 00:55:59;;;;;;;1999.90;999.90;;;11.40;99.90;;;;;;5069381;28;20474;-67
2022/10/25 00:58:31;;;;;;;1999.90;999.90;;;11.30;99.90;;;;;;5069801;28;20465;-67
2022/10/25 01:00:59;;;;;;;1999.90;999.90;;;11.30;99.90;;;;;;5069539;28;20447;-68
2022/10/25 01:03:26;;;;;;;1999.90;999.90;;;11.30;99.90;;;;;;5069331;28;20494;-67
2022/10/25 01:05:53;;;;;;;1999.90;999.90;;;11.30;99.90;;;;;;5069257;28;20543;-67
2022/10/25 01:08:21;;;;;;;1999.90;999.90;;;11.30;99.90;;;;;;5069505;28;20481;-67
2022/10/25 01:10:48;;;;;;;1999.90;999.90;;;11.30;99.90;;;;;;5069325;28;20466;-67
2022/10/25 01:13:15;;;;;;;1999.90;999.90;;;11.30;99.90;;;;;;5069265;28;20439;-67
2022/10/25 01:15:52;;;;;;;1999.90;999.90;;;11.20;99.90;;;;;;5069001;28;20443;-68
2022/10/25 01:18:25;;;;;;;1999.90;999.90;;;11.20;99.90;;;;;;5069436;28;20469;-67
2022/10/25 01:21:34;;;;;;;1999.90;999.90;;;11.20;99.90;;;;;;5069003;28;20447;-67
2022/10/25 01:24:14;;;;;;;1999.90;999.90;;;11.20;99.90;;;;;;5068675;28;20799;-67
2022/10/25 01:27:06;;;;;;;1999.90;999.90;;;11.20;99.90;;;;;;5069262;28;20456;-66
2022/10/25 01:30:05;;;;;;;1999.90;999.90;;;11.20;99.90;;;;;;5069372;28;20439;-66
2022/10/25 01:32:40;;;;;;;1999.90;999.90;;;11.10;99.90;;;;;;5068118;28;20456;-66
2022/10/25 01:35:13;;;;;;;1999.90;999.90;;;11.20;99.90;;;;;;5068954;28;20458;-67
2022/10/25 01:37:45;;;;;;;1999.90;999.90;;;11.20;99.90;;;;;;5069111;28;20467;-66
2022/10/25 01:40:21;;;;;;;1999.90;999.90;;;11.10;99.90;;;;;;5069582;28;20446;-67
2022/10/25 01:42:55;;;;;;;1999.90;999.90;;;11.10;99.90;;;;;;5068325;28;21327;-66
2022/10/25 01:45:27;;;;;;;1999.90;999.90;;;11.10;99.90;;;;;;5069041;28;20450;-66
2022/10/25 01:48:02;;;;;;;1999.90;999.90;;;11.00;99.90;;;;;;5069206;28;20943;-66
2022/10/25 01:50:32;;;;;;;1999.90;999.90;;;11.00;99.90;;;;;;5069330;28;20480;-67
2022/10/25 01:52:59;;;;;;;1999.90;999.90;;;11.00;99.90;;;;;;5071232;28;20447;-66
2022/10/25 01:55:31;;;;;;;1999.90;999.90;;;11.10;99.90;;;;;;5072568;28;20970;-67
2022/10/25 01:58:10;;;;;;;1999.90;999.90;;;11.00;99.90;;;;;;5072885;28;20463;-67
2022/10/25 02:00:45;;;;;;;1999.90;999.90;;;11.00;99.90;;;;;;5072455;28;20446;-66
2022/10/25 02:03:22;;;;;;;1999.90;999.90;;;11.00;99.90;;;;;;5072234;28;20477;-66
2022/10/25 02:06:02;;;;;;;1999.90;999.90;;;11.00;99.90;;;;;;5072412;28;20443;-66
2022/10/25 02:08:35;;;;;;;1999.90;999.90;;;11.00;99.90;;;;;;5072666;28;20488;-66
2022/10/25 02:11:09;;;;;;;1999.90;999.90;;;11.00;99.90;;;;;;5072511;28;20446;-66
2022/10/25 02:13:48;;;;;;;1999.90;999.90;;;11.10;99.90;;;;;;5072401;28;21051;-66
2022/10/25 02:16:20;;;;;;;1999.90;999.90;;;11.10;99.90;;;;;;5072497;28;20462;-67
2022/10/25 02:18:52;;;;;;;1999.90;999.90;;;11.10;99.90;;;;;;5072685;28;20466;-66
2022/10/25 02:21:20;;;;;;;1999.90;999.90;;;11.10;99.90;;;;;;5072194;28;20447;-66
2022/10/25 02:23:49;;;;;;;1999.90;999.90;;;11.20;99.90;;;;;;5071798;28;21022;-67
2022/10/25 02:26:17;;;;;;;1999.90;999.90;;;11.20;99.90;;;;;;5072240;28;20450;-66
2022/10/25 02:28:45;;;;;;;1999.90;999.90;;;11.20;99.90;;;;;;5072222;28;20470;-66
2022/10/25 02:31:15;;;;;;;1999.90;999.90;;;11.20;99.90;;;;;;5071948;28;20443;-66
2022/10/25 02:33:44;;;;;;;1999.90;999.90;;;11.20;99.90;;;;;;5071857;28;20818;-66
2022/10/25 02:36:16;;;;;;;1999.90;999.90;;;11.20;99.90;;;;;;5071613;28;20822;-66
2022/10/25 02:38:44;;;;;;;1999.90;999.90;;;11.20;99.90;;;;;;5072088;28;20839;-66
2022/10/25 02:44:33;;;;;;;1999.90;999.90;;;11.20;99.90;;;;;;5072789;28;20460;-69
2022/10/25 02:46:59;;;;;;;1999.90;999.90;;;11.20;99.90;;;;;;5072048;28;20450;-68
2022/10/25 02:49:26;;;;;;;1999.90;999.90;;;11.20;99.90;;;;;;5071960;28;20439;-69
2022/10/25 02:51:54;;;;;;;1999.90;999.90;;;11.20;99.90;;;;;;5071091;28;20449;-69
2022/10/25 02:54:21;;;;;;;1999.90;999.90;;;11.10;99.90;;;;;;5071582;28;20451;-69
2022/10/25 02:56:51;;;;;;;1999.90;999.90;;;11.10;99.90;;;;;;5071665;28;20794;-68
2022/10/25 02:59:19;;;;;;;1999.90;999.90;;;11.10;99.90;;;;;;5071917;28;20459;-68
2022/10/25 03:01:46;;;;;;;1999.90;999.90;;;11.00;99.90;;;;;;5070963;28;20447;-69
2022/10/25 03:04:13;;;;;;;1999.90;999.90;;;11.00;99.90;;;;;;5070751;28;20489;-68
2022/10/25 03:06:40;;;;;;;1999.90;999.90;;;11.00;99.90;;;;;;5071420;28;20805;-69
2022/10/25 03:09:08;;;;;;;1999.90;999.90;;;11.00;99.90;;;;;;5071640;28;20467;-69
2022/10/25 03:11:35;;;;;;;1999.90;999.90;;;11.00;99.90;;;;;;5070884;28;20455;-69
2022/10/25 03:14:02;;;;;;;1999.90;999.90;;;10.90;99.90;;;;;;5071406;28;20451;-69
2022/10/25 03:16:28;;;;;;;1999.90;999.90;;;10.90;99.90;;;;;;5071142;28;20451;-68
2022/10/25 03:18:57;;;;;;;1999.90;999.90;;;10.80;99.90;;;;;;5071409;28;20471;-68
2022/10/25 03:21:24;;;;;;;1999.90;999.90;;;10.80;99.90;;;;;;5070993;28;20451;-68
2022/10/25 03:23:51;;;;;;;1999.90;999.90;;;10.90;99.90;;;;;;5070785;28;20479;-69
2022/10/25 03:26:19;;;;;;;1999.90;999.90;;;10.80;99.90;;;;;;5071118;28;20821;-68
2022/10/25 03:28:46;;;;;;;1999.90;999.90;;;10.80;99.90;;;;;;5070973;28;21007;-68
2022/10/25 03:31:13;;;;;;;1999.90;999.90;;;10.80;99.90;;;;;;5070745;28;20443;-68
2022/10/25 03:33:40;;;;;;;1999.90;999.90;;;10.80;99.90;;;;;;5070593;28;20450;-68
2022/10/25 03:36:08;;;;;;;1999.90;999.90;;;10.90;99.90;;;;;;5070746;28;20451;-69
2022/10/25 03:38:34;;;;;;;1999.90;999.90;;;10.90;99.90;;;;;;5070781;28;21038;-68
2022/10/25 03:41:01;;;;;;;1999.90;999.90;;;10.90;99.90;;;;;;5070555;28;21096;-69
2022/10/25 03:43:29;;;;;;;1999.90;999.90;;;10.90;99.90;;;;;;5070450;28;20475;-68
2022/10/25 03:45:56;;;;;;;1999.90;999.90;;;10.80;99.90;;;;;;5070425;28;20443;-68
2022/10/25 03:48:23;;;;;;;1999.90;999.90;;;10.80;99.90;;;;;;5070692;28;20466;-68
2022/10/25 03:50:49;;;;;;;1999.90;999.90;;;10.80;99.90;;;;;;5070258;28;21119;-68
2022/10/25 03:53:16;;;;;;;1999.90;999.90;;;10.80;99.90;;;;;;5070237;28;20446;-69
2022/10/25 03:55:43;;;;;;;1999.90;999.90;;;10.90;99.90;;;;;;5070423;28;20470;-68
2022/10/25 03:58:09;;;;;;;1999.90;999.90;;;10.80;99.90;;;;;;5070459;28;20466;-69
2022/10/25 04:00:38;;;;;;;1999.90;999.90;;;10.80;99.90;;;;;;5070154;28;20451;-69
2022/10/25 04:03:04;;;;;;;1999.90;999.90;;;10.90;99.90;;;;;;5070099;28;21043;-68
2022/10/25 04:05:32;;;;;;;1999.90;999.90;;;10.90;99.90;;;;;;5069846;28;20447;-68
2022/10/25 04:07:59;;;;;;;1999.90;999.90;;;10.80;99.90;;;;;;5070582;28;20802;-69
2022/10/25 04:10:26;;;;;;;1999.90;999.90;;;10.80;99.90;;;;;;5070474;28;20450;-69
2022/10/25 04:12:53;;;;;;;1999.90;999.90;;;10.80;99.90;;;;;;5069565;28;20443;-69
2022/10/25 04:15:20;;;;;;;1999.90;999.90;;;10.80;99.90;;;;;;5069926;28;20439;-69
2022/10/25 04:17:50;;;;;;;1999.90;999.90;;;10.90;99.90;;;;;;5070420;28;20459;-68
2022/10/25 04:20:17;;;;;;;1999.90;999.90;;;10.90;99.90;;;;;;5070255;28;20447;-69
2022/10/25 04:22:44;;;;;;;1999.90;999.90;;;10.90;99.90;;;;;;5069854;28;20847;-68
2022/10/25 04:25:11;;;;;;;1999.90;999.90;;;10.90;99.90;;;;;;5070229;28;20451;-68
2022/10/25 04:27:37;;;;;;;1999.90;999.90;;;10.90;99.90;;;;;;5070313;28;20466;-68
2022/10/25 04:30:05;;;;;;;1999.90;999.90;;;10.90;99.90;;;;;;5070399;28;20450;-68
2022/10/25 04:32:31;;;;;;;1999.90;999.90;;;10.90;99.90;;;;;;5069344;28;20447;-69
2022/10/25 04:35:00;;;;;;;1999.90;999.90;;;10.90;99.90;;;;;;5069637;28;20825;-70
2022/10/25 04:37:26;;;;;;;1999.90;999.90;;;10.90;99.90;;;;;;5070024;28;20463;-70
2022/10/25 04:39:53;;;;;;;1999.90;999.90;;;10.90;99.90;;;;;;5070182;28;20445;-70
2022/10/25 04:42:20;;;;;;;1999.90;999.90;;;11.00;99.90;;;;;;5069199;28;20820;-70
2022/10/25 04:44:46;;;;;;;1999.90;999.90;;;11.00;99.90;;;;;;5069825;28;20486;-69
2022/10/25 04:47:13;;;;;;;1999.90;999.90;;;11.00;99.90;;;;;;5069822;28;20439;-70
2022/10/25 04:49:40;;;;;;;1999.90;999.90;;;11.00;99.90;;;;;;5070243;28;20447;-69
2022/10/25 04:52:08;;;;;;;1999.90;999.90;;;11.00;99.90;;;;;;5066579;28;20468;-69
2022/10/25 04:54:35;;;;;;;1999.90;999.90;;;11.10;99.90;;;;;;5069437;28;20462;-70
2022/10/25 04:57:02;;;;;;;1999.90;999.90;;;11.10;99.90;;;;;;5070341;28;20444;-69
2022/10/25 04:59:28;;;;;;;1999.90;999.90;;;11.10;99.90;;;;;;5070125;28;20878;-70
2022/10/25 05:01:55;;;;;;;1999.90;999.90;;;11.00;99.90;;;;;;5068579;28;20447;-69
2022/10/25 05:04:22;;;;;;;1999.90;999.90;;;11.10;99.90;;;;;;5060177;28;20510;-69
2022/10/25 05:06:49;;;;;;;1999.90;999.90;;;11.00;99.90;;;;;;5056071;28;20474;-68
2022/10/25 05:09:17;;;;;;;1999.90;999.90;;;11.00;99.90;;;;;;5059895;28;20466;-68
2022/10/25 05:11:43;;;;;;;1999.90;999.90;;;11.00;99.90;;;;;;5058454;28;20451;-68
2022/10/25 05:14:10;;;;;;;1999.90;999.90;;;11.00;99.90;;;;;;5056373;28;20459;-68
2022/10/25 05:16:38;;;;;;;1999.90;999.90;;;10.90;99.90;;;;;;5059697;28;20452;-68
2022/10/25 05:19:04;;;;;;;1999.90;999.90;;;10.90;99.90;;;;;;5061353;28;20466;-68
2022/10/25 05:21:31;;;;;;;1999.90;999.90;;;10.90;99.90;;;;;;5065116;28;20455;-69
2022/10/25 05:23:58;;;;;;;1999.90;999.90;;;11.00;99.90;;;;;;5065176;28;20483;-69
2022/10/25 05:26:27;;;;;;;1999.90;999.90;;;10.90;99.90;;;;;;5065537;28;20852;-69
2022/10/25 05:28:55;;;;;;;1999.90;999.90;;;10.80;99.90;;;;;;5064338;28;20711;-69
2022/10/25 05:31:24;;;;;;;1999.90;999.90;;;10.90;99.90;;;;;;5071864;28;20451;-69
2022/10/25 05:33:52;;;;;;;1999.90;999.90;;;10.90;99.90;;;;;;5072861;28;20439;-69
2022/10/25 05:36:19;;;;;;;1999.90;999.90;;;10.90;99.90;;;;;;5073083;28;20442;-69
2022/10/25 05:38:47;;;;;;;1999.90;999.90;;;10.90;99.90;;;;;;5073316;28;20826;-69
2022/10/25 05:41:16;;;;;;;1999.90;999.90;;;10.90;99.90;;;;;;5072709;28;20840;-69
2022/10/25 05:43:45;;;;;;;1999.90;999.90;;;10.90;99.90;;;;;;5072669;28;21063;-69
2022/10/25 05:46:17;;;;;;;1999.90;999.90;;;11.00;99.90;;;;;;5072907;28;20470;-69
2022/10/25 05:48:44;;;;;;;1999.90;999.90;;;11.00;99.90;;;;;;5067892;28;21001;-69
2022/10/25 05:51:13;;;;;;;1999.90;999.90;;;11.00;99.90;;;;;;5072170;28;20442;-69
2022/10/25 05:53:44;;;;;;;1999.90;999.90;;;11.00;99.90;;;;;;5072617;28;20435;-69
2022/10/25 05:56:11;;;;;;;1999.90;999.90;;;11.00;99.90;;;;;;5072583;28;20793;-69
2022/10/25 05:58:38;;;;;;;1999.90;999.90;;;11.10;99.90;;;;;;5072869;28;20562;-69
2022/10/25 06:01:06;;;;;;;1999.90;999.90;;;11.10;99.90;;;;;;5072623;28;20852;-69
2022/10/25 06:03:33;;;;;;;1999.90;999.90;;;11.10;99.90;;;;;;5072426;28;20471;-69
2022/10/25 06:06:01;;;;;;;1999.90;999.90;;;11.10;99.90;;;;;;5072367;28;20454;-69
2022/10/25 06:08:29;;;;;;;1999.90;999.90;;;11.10;99.90;;;;;;5072511;28;20467;-69
2022/10/25 06:10:56;;;;;;;1999.90;999.90;;;11.10;99.90;;;;;;5072459;28;20454;-66
2022/10/25 06:13:22;;;;;;;1999.90;999.90;;;11.10;99.90;;;;;;5072300;28;20446;-67
2022/10/25 06:15:49;;;;;;;1999.90;999.90;;;11.10;99.90;;;;;;5072301;28;20446;-66
2022/10/25 06:18:17;;;;;;;1999.90;999.90;;;11.10;99.90;;;;;;5072571;28;20463;-67
2022/10/25 06:20:44;;;;;;;1999.90;999.90;;;11.10;99.90;;;;;;5072290;28;20450;-67
2022/10/25 06:23:10;;;;;;;1999.90;999.90;;;11.20;99.90;;;;;;5072057;28;20446;-69
2022/10/25 06:25:37;;;;;;;1999.90;999.90;;;11.10;99.90;;;;;;5072365;28;20446;-69
2022/10/25 06:28:04;;;;;;;1999.90;999.90;;;11.10;99.90;;;;;;5072681;28;20455;-70
2022/10/25 06:30:31;;;;;;;1999.90;999.90;;;11.10;99.90;;;;;;5072665;28;20446;-69
2022/10/25 06:32:58;;;;;;;1999.90;999.90;;;11.10;99.90;;;;;;5071767;28;20447;-70
2022/10/25 06:35:27;;;;;;;1999.90;999.90;;;11.10;99.90;;;;;;5072117;28;20455;-69
2022/10/25 06:37:54;;;;;;;1999.90;999.90;;;11.10;99.90;;;;;;5071451;28;20480;-69
2022/10/25 06:40:21;;;;;;;1999.90;999.90;;;11.00;99.90;;;;;;5072113;28;20545;-69
2022/10/25 06:42:47;;;;;;;1999.90;999.90;;;11.00;99.90;;;;;;5071507;28;20462;-68
2022/10/25 06:45:14;;;;;;;1999.90;999.90;;;11.10;99.90;;;;;;5071614;28;20490;-69
2022/10/25 06:47:45;;;;;;;1999.90;999.90;;;11.00;99.90;;;;;;5072102;28;20463;-68
2022/10/25 06:50:12;;;;;;;1999.90;999.90;;;11.10;99.90;;;;;;5072010;28;20443;-69
2022/10/25 06:52:40;;;;;;;1999.90;999.90;;;11.20;99.90;;;;;;5071111;28;20945;-69
2022/10/25 06:55:07;;;;;;;1999.90;999.90;;;11.20;99.90;;;;;;5071737;28;20821;-68
2022/10/25 06:57:33;;;;;;;1999.90;999.90;;;11.30;99.90;;;;;;5071863;28;20463;-68
2022/10/25 07:00:00;;;;;;;1999.90;999.90;;;11.30;99.90;;;;;;5071768;28;20952;-69
2022/10/25 07:02:27;;;;;;;1999.90;999.90;;;11.40;99.90;;;;;;5070715;28;20496;-69
2022/10/25 07:04:54;;;;;;;1999.90;999.90;;;11.50;99.90;;;;;;5071138;28;20487;-69
2022/10/25 07:07:21;;;;;;;1999.90;999.90;;;11.60;99.90;;;;;;5071772;28;20486;-69
2022/10/25 07:09:49;;;;;;;1999.90;999.90;;;11.60;99.90;;;;;;5071686;28;21280;-69
2022/10/25 07:12:16;;;;;;;1999.90;999.90;;;11.80;99.90;;;;;;5070784;28;20447;-69
2022/10/25 07:14:43;;;;;;;1999.90;999.90;;;12.00;99.90;;;;;;5071170;28;20852;-69
2022/10/25 07:17:10;;;;;;;1999.90;999.90;;;12.20;99.90;;;;;;5071295;28;20450;-69
2022/10/25 07:19:36;;;;;;;1999.90;999.90;;;12.20;99.90;;;;;;5071257;28;20443;-69
2022/10/25 07:22:03;;;;;;;1999.90;999.90;;;12.30;99.90;;;;;;5070633;28;20455;-69
2022/10/25 07:24:30;;;;;;;1999.90;999.90;;;12.50;99.90;;;;;;5070993;28;20498;-69
2022/10/25 07:26:58;;;;;;;1999.90;999.90;;;12.50;99.90;;;;;;5071306;28;20454;-69
2022/10/25 07:29:25;;;;;;;1999.90;999.90;;;12.60;99.90;;;;;;5071183;28;20835;-69
2022/10/25 07:31:52;;;;;;;1999.90;999.90;;;12.70;99.90;;;;;;5070195;28;20818;-69
2022/10/25 07:34:19;;;;;;;1999.90;999.90;;;12.80;99.90;;;;;;5070646;28;20455;-69
2022/10/25 07:36:46;;;;;;;1999.90;999.90;;;12.80;99.90;;;;;;5071342;28;20969;-69
2022/10/25 07:39:13;;;;;;;1999.90;999.90;;;12.70;99.90;;;;;;5071183;28;20462;-69
2022/10/25 07:41:40;;;;;;;1999.90;999.90;;;12.70;99.90;;;;;;5070197;28;20446;-69
2022/10/25 07:44:08;;;;;;;1999.90;999.90;;;12.60;99.90;;;;;;5070776;28;20485;-69
2022/10/25 07:46:34;;;;;;;1999.90;999.90;;;12.70;99.90;;;;;;5070390;28;20714;-69
2022/10/25 07:49:01;;;;;;;1999.90;999.90;;;12.70;99.90;;;;;;5071153;28;20839;-69
2022/10/25 07:51:28;;;;;;;1999.90;999.90;;;12.70;99.90;;;;;;5070289;28;20877;-70
2022/10/25 07:53:55;;;;;;;1999.90;999.90;;;12.80;99.90;;;;;;5069351;28;20439;-69
2022/10/25 07:56:22;;;;;;;1999.90;999.90;;;12.90;99.90;;;;;;5070913;28;20443;-69
2022/10/25 07:58:48;;;;;;;1999.90;999.90;;;13.00;99.90;;;;;;5071088;28;21020;-69
2022/10/25 08:01:19;;;;;;;1999.90;999.90;;;13.10;99.90;;;;;;5061817;28;20486;-68
2022/10/25 08:03:46;;;;;;;1999.90;999.90;;;13.10;99.90;;;;;;5061018;28;20435;-68
2022/10/25 08:06:13;;;;;;;1999.90;999.90;;;13.20;99.90;;;;;;5063147;28;20522;-68
2022/10/25 08:08:40;;;;;;;1999.90;999.90;;;13.20;99.90;;;;;;5062114;28;20459;-68
2022/10/25 08:11:07;;;;;;;1999.90;999.90;;;13.30;99.90;;;;;;5059582;28;20446;-68
2022/10/25 08:13:35;;;;;;;1999.90;999.90;;;13.40;99.90;;;;;;5059397;28;20448;-70
2022/10/25 08:16:02;;;;;;;1999.90;999.90;;;13.50;99.90;;;;;;5060074;28;20488;-70
2022/10/25 08:18:30;;;;;;;1999.90;999.90;;;13.50;99.90;;;;;;5061223;28;20900;-70
2022/10/25 08:20:57;;;;;;;1999.90;999.90;;;13.60;99.90;;;;;;5058223;28;20444;-70
2022/10/25 08:23:25;;;;;;;1999.90;999.90;;;13.70;99.90;;;;;;5050039;28;20451;-69
2022/10/25 08:25:52;;;;;;;1999.90;999.90;;;13.80;99.90;;;;;;5054647;28;21298;-68
2022/10/25 08:28:18;;;;;;;1999.90;999.90;;;13.80;99.90;;;;;;5070217;28;20524;-69
2022/10/25 08:30:45;;;;;;;1999.90;999.90;;;13.90;99.90;;;;;;5069663;28;20458;-69
2022/10/25 08:33:12;;;;;;;1999.90;999.90;;;14.10;99.90;;;;;;5069783;28;20449;-68
2022/10/25 08:35:40;;;;;;;1999.90;999.90;;;14.20;99.90;;;;;;5069570;28;20451;-68
2022/10/25 08:38:08;;;;;;;1999.90;999.90;;;14.30;99.90;;;;;;5069921;28;20546;-68
2022/10/25 08:40:44;;;;;;;1999.90;999.90;;;14.40;99.90;;;;;;5069853;28;20459;-67
2022/10/25 08:43:25;;;;;;;1999.90;999.90;;;14.40;99.90;;;;;;5056894;28;20440;-68
2022/10/25 08:45:56;;;;;;;1999.90;999.90;;;14.50;99.90;;;;;;5052336;28;20499;-67
2022/10/25 08:48:28;;;;;;;1999.90;999.90;;;14.50;99.90;;;;;;5050284;28;20467;-68
2022/10/25 08:50:59;;;;;;;1999.90;999.90;;;14.60;99.90;;;;;;5049692;28;20448;-68
2022/10/25 08:53:30;;;;;;;1999.90;999.90;;;14.70;99.90;;;;;;5049759;28;20470;-68
2022/10/25 08:55:57;;;;;;;1999.90;999.90;;;14.80;99.90;;;;;;5049393;28;20930;-68
2022/10/25 08:58:28;;;;;;;1999.90;999.90;;;14.90;99.90;;;;;;5049142;28;20476;-68
2022/10/25 09:00:57;;;;;;;1999.90;999.90;;;15.00;99.90;;;;;;5048745;28;20458;-68
2022/10/25 09:03:26;;;;;;;1999.90;999.90;;;15.20;99.90;;;;;;5048669;28;21121;-68
2022/10/25 09:06:06;;;;;;;1999.90;999.90;;;15.30;99.90;;;;;;5049044;28;20502;-68
2022/10/25 09:08:49;;;;;;;1999.90;999.90;;;15.30;99.90;;;;;;5062993;28;20984;-68
2022/10/25 09:11:30;;;;;;;1999.90;999.90;;;15.50;99.90;;;;;;5069222;28;20442;-68
2022/10/25 09:14:03;;;;;;;1999.90;999.90;;;15.60;99.90;;;;;;5062555;28;20952;-68
2022/10/25 09:16:35;;;;;;;1999.90;999.90;;;15.80;99.90;;;;;;5062341;28;20444;-68
2022/10/25 09:19:04;;;;;;;1999.90;999.90;;;16.00;99.90;;;;;;5069406;28;20482;-68
2022/10/25 09:21:42;;;;;;;1999.90;999.90;;;16.30;99.90;;;;;;5065531;28;20436;-68
2022/10/25 09:24:19;;;;;;;1999.90;999.90;;;16.50;99.90;;;;;;5061038;28;20450;-68
2022/10/25 09:26:53;;;;;;;1999.90;999.90;;;16.80;99.90;;;;;;5069239;28;20466;-68
2022/10/25 09:29:25;;;;;;;1999.90;999.90;;;17.00;99.90;;;;;;5069145;28;20835;-68
2022/10/25 09:31:57;;;;;;;1999.90;999.90;;;17.30;99.90;;;;;;5067853;28;20439;-68
2022/10/25 09:34:27;;;;;;;1999.90;999.90;;;17.40;99.90;;;;;;5065177;28;20466;-68
2022/10/25 09:37:03;;;;;;;1999.90;999.90;;;17.80;99.90;;;;;;5069145;28;20485;-68
2022/10/25 09:39:37;;;;;;;1999.90;999.90;;;18.20;99.90;;;;;;5069210;28;20443;-68
2022/10/25 09:42:07;;;;;;;1999.90;999.90;;;18.60;99.90;;;;;;5051909;28;20443;-69
2022/10/25 09:44:38;;;;;;;1999.90;999.90;;;18.90;99.90;;;;;;5068650;28;20474;-68
2022/10/25 09:47:18;;;;;;;1999.90;999.90;;;19.10;99.90;;;;;;5068690;28;20443;-69
2022/10/25 09:49:53;;;;;;;1999.90;999.90;;;19.30;99.90;;;;;;5068840;28;21154;-69
2022/10/25 09:52:28;;;;;;;1999.90;999.90;;;19.40;99.90;;;;;;5068434;28;20443;-68
2022/10/25 09:55:02;;;;;;;1999.90;999.90;;;19.70;99.90;;;;;;5068594;28;20438;-69
2022/10/25 09:57:29;;;;;;;1999.90;999.90;;;19.90;99.90;;;;;;5067601;28;20474;-69
2022/10/25 09:59:56;;;;;;;1999.90;999.90;;;20.20;99.90;;;;;;5068961;28;20522;-68
2022/10/25 10:02:24;;;;;;;1999.90;999.90;;;20.30;99.90;;;;;;5068150;28;21104;-68
2022/10/25 10:04:52;;;;;;;1999.90;999.90;;;20.60;99.90;;;;;;5068690;28;20474;-68
2022/10/25 10:07:23;;;;;;;1999.90;999.90;;;20.80;99.90;;;;;;5068818;28;20474;-69
2022/10/25 10:09:54;;;;;;;1999.90;999.90;;;21.00;99.90;;;;;;5068321;28;20447;-68
2022/10/25 10:12:26;;;;;;;1999.90;999.90;;;21.50;99.90;;;;;;5067876;28;20547;-68
2022/10/25 10:14:58;;;;;;;1999.90;999.90;;;21.90;99.90;;;;;;5062866;28;20447;-69
2022/10/25 10:17:27;;;;;;;1999.90;999.90;;;22.20;99.90;;;;;;5069616;28;20469;-69
2022/10/25 10:20:13;;;;;;;1999.90;999.90;;;22.20;99.90;;;;;;5070278;28;20474;-69
2022/10/25 10:22:48;;;;;;;1999.90;999.90;;;22.30;99.90;;;;;;5066104;28;20450;-69
2022/10/25 10:25:17;;;;;;;1999.90;999.90;;;22.20;99.90;;;;;;5067041;28;20471;-69
2022/10/25 10:27:47;;;;;;;1999.90;999.90;;;21.70;99.90;;;;;;5071444;28;20467;-69
2022/10/25 10:30:22;;;;;;;1999.90;999.90;;;21.20;99.90;;;;;;5072055;28;20477;-69
2022/10/25 10:32:54;;;;;;;1999.90;999.90;;;21.20;99.90;;;;;;5070842;28;20451;-69
2022/10/25 10:35:28;;;;;;;1999.90;999.90;;;21.30;99.90;;;;;;5060795;28;20451;-69
2022/10/25 10:38:28;;;;;;;1999.90;999.90;;;21.00;99.90;;;;;;5063961;28;20452;-69
2022/10/25 10:41:13;;;;;;;1999.90;999.90;;;21.10;99.90;;;;;;5069287;28;20444;-69
2022/10/25 10:43:40;;;;;;;1999.90;999.90;;;21.70;99.90;;;;;;5071491;28;20894;-69
2022/10/25 10:46:11;;;;;;;1999.90;999.90;;;22.50;99.90;;;;;;5071441;28;20479;-69
2022/10/25 10:48:41;;;;;;;1999.90;999.90;;;23.60;99.90;;;;;;5075674;28;20467;-68
2022/10/25 10:51:08;;;;;;;1999.90;999.90;;;24.70;99.90;;;;;;5065281;28;20447;-69
2022/10/25 10:53:35;;;;;;;1999.90;999.90;;;25.00;99.90;;;;;;5071365;28;20450;-69
2022/10/25 10:56:05;;;;;;;1999.90;999.90;;;25.60;99.90;;;;;;5071374;28;20435;-69
2022/10/25 10:58:34;;;;;;;1999.90;999.90;;;26.10;99.90;;;;;;5072203;28;20554;-69
2022/10/25 11:01:04;;;;;;;1999.90;999.90;;;26.00;99.90;;;;;;5070568;28;20451;-68
2022/10/25 11:03:48;;;;;;;1999.90;999.90;;;26.00;99.90;;;;;;5070411;28;20439;-69
2022/10/25 11:06:18;;;;;;;1999.90;999.90;;;26.00;99.90;;;;;;5067025;28;20531;-69
2022/10/25 11:08:47;;;;;;;1999.90;999.90;;;26.40;99.90;;;;;;5065871;28;21054;-69
2022/10/25 11:11:18;;;;;;;1999.90;999.90;;;26.60;99.90;;;;;;5070096;28;20980;-68
2022/10/25 11:13:52;;;;;;;1999.90;999.90;;;25.80;99.90;;;;;;5071540;28;20439;-69
2022/10/25 11:16:43;;;;;;;1999.90;999.90;;;25.80;99.90;;;;;;5071105;28;20455;-69
2022/10/25 11:19:34;;;;;;;1999.90;999.90;;;26.50;99.90;;;;;;5071759;28;20470;-69
2022/10/25 11:22:25;;;;;;;1999.90;999.90;;;26.90;98.80;;;;;;5069789;28;20442;-68
2022/10/25 11:25:05;;;;;;;1999.90;999.90;;;26.70;98.80;;;;;;5062401;28;20455;-69
2022/10/25 11:27:45;;;;;;;1999.90;999.90;;;25.80;98.80;;;;;;5071375;28;20969;-69
2022/10/25 11:30:15;;;;;;;1999.90;999.90;;;26.00;99.10;;;;;;5071460;28;20474;-69
2022/10/25 11:33:06;;;;;;;1999.90;999.90;;;26.60;99.60;;;;;;5070678;28;20450;-69
2022/10/25 11:35:43;;;;;;;1999.90;999.90;;;27.70;97.00;;;;;;5061874;28;20463;-68
2022/10/25 11:38:20;;;;;;;1999.90;999.90;;;27.00;96.00;;;;;;5071195;28;20458;-68
2022/10/25 11:40:56;;;;;;;1999.90;999.90;;;25.80;97.70;;;;;;5070782;28;20624;-68
2022/10/25 11:43:41;;;;;;;1999.90;999.90;;;25.20;99.10;;;;;;5070669;28;20968;-68
2022/10/25 11:46:19;;;;;;;1999.90;999.90;;;24.50;99.90;;;;;;5070631;28;20486;-68
2022/10/25 11:48:58;;;;;;;1999.90;999.90;;;23.90;99.90;;;;;;5070957;28;20497;-69
2022/10/25 11:51:34;;;;;;;1999.90;999.90;;;23.00;99.90;;;;;;5070608;28;20443;-68
2022/10/25 11:54:30;;;;;;;1999.90;999.90;;;22.00;99.90;;;;;;5070454;28;20933;-68
2022/10/25 11:57:08;;;;;;;1999.90;999.90;;;20.50;99.90;;;;;;5057910;28;20450;-68
2022/10/25 11:59:49;;;;;;;1999.90;999.90;;;19.70;99.90;;;;;;5070850;28;20443;-68
2022/10/25 12:02:42;;;;;;;1999.90;999.90;;;19.10;99.90;;;;;;5069931;28;20439;-68
2022/10/25 12:05:25;;;;;;;1999.90;999.90;;;18.80;99.90;;;;;;5070360;28;20475;-68
2022/10/25 12:08:00;;;;;;;1999.90;999.90;;;18.50;99.90;;;;;;5070674;28;20924;-68
2022/10/25 12:10:32;;;;;;;1999.90;999.90;;;18.40;99.90;;;;;;5070568;28;20451;-68
2022/10/25 12:13:03;;;;;;;1999.90;999.90;;;18.40;99.90;;;;;;5069928;28;20431;-68
2022/10/25 12:15:36;;;;;;;1999.90;999.90;;;18.40;99.90;;;;;;5070219;28;20443;-68
2022/10/25 12:18:05;;;;;;;1999.90;999.90;;;18.40;99.90;;;;;;5070464;28;20463;-68